createdAt,value
2016-10-17T00:00:03.166Z,0
2016-10-17T00:01:03.170Z,0
2016-10-17T00:02:03.136Z,0
2016-10-17T00:03:03.130Z,0
2016-10-17T00:04:03.115Z,0
2016-10-17T00:05:03.114Z,0
2016-10-17T00:06:03.105Z,0
2016-10-17T00:07:03.102Z,0
2016-10-17T00:08:03.076Z,0
2016-10-17T00:09:03.075Z,0
2016-10-17T00:10:03.089Z,0
2016-10-17T00:11:03.042Z,0
2016-10-17T00:12:03.045Z,0
2016-10-17T00:13:03.027Z,0
2016-10-17T00:14:03.012Z,0
2016-10-17T00:15:03.009Z,0
2016-10-17T00:16:02.990Z,0
2016-10-17T00:17:03.021Z,0
2016-10-17T00:18:02.965Z,0
2016-10-17T00:19:02.959Z,0
2016-10-17T00:20:02.989Z,0
2016-10-17T00:21:02.945Z,0
2016-10-17T00:22:03.598Z,0
2016-10-17T00:23:02.911Z,0
2016-10-17T00:24:02.898Z,0
2016-10-17T00:25:02.899Z,0
2016-10-17T00:26:02.887Z,0
2016-10-17T00:27:02.889Z,0
2016-10-17T00:28:02.892Z,0
2016-10-17T00:29:02.975Z,0
2016-10-17T00:30:02.842Z,0
2016-10-17T00:31:02.823Z,0
2016-10-17T00:32:02.823Z,0
2016-10-17T00:33:02.806Z,0
2016-10-17T00:34:02.808Z,0
2016-10-17T00:35:02.822Z,0
2016-10-17T00:36:02.779Z,0
2016-10-17T00:37:02.776Z,0
2016-10-17T00:38:02.751Z,0
2016-10-17T00:39:02.759Z,0
2016-10-17T00:40:02.762Z,0
2016-10-17T00:41:02.724Z,0
2016-10-17T00:42:02.712Z,0
2016-10-17T00:43:02.718Z,0
2016-10-17T00:44:02.700Z,0
2016-10-17T00:45:02.677Z,0
2016-10-17T00:46:02.678Z,0
2016-10-17T00:47:02.655Z,0
2016-10-17T00:48:02.644Z,0
2016-10-17T00:49:02.638Z,0
2016-10-17T00:50:02.626Z,0
2016-10-17T00:51:02.621Z,0
2016-10-17T00:52:02.609Z,0
2016-10-17T00:53:02.987Z,0
2016-10-17T00:54:02.592Z,0
2016-10-17T00:55:02.582Z,0
2016-10-17T00:56:02.557Z,0
2016-10-17T00:57:02.552Z,0
2016-10-17T00:58:02.555Z,0
2016-10-17T00:59:02.532Z,0
2016-10-17T01:00:02.522Z,0
2016-10-17T01:01:02.513Z,0
2016-10-17T01:02:02.503Z,0
2016-10-17T01:03:02.488Z,0
2016-10-17T01:04:02.496Z,0
2016-10-17T01:05:02.461Z,0
2016-10-17T01:06:02.465Z,0
2016-10-17T01:07:02.466Z,0
2016-10-17T01:08:02.438Z,0
2016-10-17T01:09:02.428Z,0
2016-10-17T01:10:02.412Z,0
2016-10-17T01:11:02.726Z,0
2016-10-17T01:12:02.399Z,0
2016-10-17T01:13:02.424Z,0
2016-10-17T01:14:02.371Z,0
2016-10-17T01:15:02.341Z,0
2016-10-17T01:16:02.358Z,0
2016-10-17T01:17:02.351Z,0
2016-10-17T01:18:02.332Z,0
2016-10-17T01:19:02.311Z,0
2016-10-17T01:20:02.305Z,0
2016-10-17T01:21:02.284Z,0
2016-10-17T01:22:02.269Z,0
2016-10-17T01:23:02.299Z,0
2016-10-17T01:24:02.269Z,0
2016-10-17T01:25:02.241Z,0
2016-10-17T01:26:02.239Z,0
2016-10-17T01:27:02.230Z,0
2016-10-17T01:28:02.213Z,0
2016-10-17T01:29:02.206Z,0
2016-10-17T01:30:02.193Z,0
2016-10-17T01:31:02.411Z,0
2016-10-17T01:32:02.535Z,0
2016-10-17T01:33:02.183Z,0
2016-10-17T01:34:02.174Z,0
2016-10-17T01:35:02.203Z,0
2016-10-17T01:36:02.125Z,0
2016-10-17T01:37:02.122Z,0
2016-10-17T01:38:02.421Z,0
2016-10-17T01:39:02.097Z,0
2016-10-17T01:40:02.093Z,0
2016-10-17T01:41:02.097Z,0
2016-10-17T01:42:02.070Z,0
2016-10-17T01:43:02.075Z,0
2016-10-17T01:44:02.054Z,0
2016-10-17T01:45:02.027Z,0
2016-10-17T01:46:02.101Z,0
2016-10-17T01:47:02.035Z,0
2016-10-17T01:48:01.992Z,0
2016-10-17T01:49:02.093Z,0
2016-10-17T01:50:01.988Z,0
2016-10-17T01:51:01.971Z,0
2016-10-17T01:52:02.064Z,0
2016-10-17T01:53:01.945Z,0
2016-10-17T01:54:01.936Z,0
2016-10-17T01:55:02.289Z,0
2016-10-17T01:56:02.001Z,0
2016-10-17T01:57:01.915Z,0
2016-10-17T01:58:01.910Z,0
2016-10-17T01:59:01.909Z,0
2016-10-17T02:00:01.950Z,0
2016-10-17T02:01:01.870Z,0
2016-10-17T02:02:01.839Z,0
2016-10-17T02:03:01.841Z,0
2016-10-17T02:04:01.849Z,0
2016-10-17T02:05:01.854Z,0
2016-10-17T02:06:01.870Z,0
2016-10-17T02:07:01.869Z,0
2016-10-17T02:08:01.802Z,0
2016-10-17T02:09:01.786Z,0
2016-10-17T02:10:01.790Z,0
2016-10-17T02:11:01.787Z,0
2016-10-17T02:12:01.798Z,0
2016-10-17T02:13:01.824Z,0
2016-10-17T02:14:01.813Z,0
2016-10-17T02:15:01.760Z,0
2016-10-17T02:16:01.778Z,0
2016-10-17T02:17:01.779Z,0
2016-10-17T02:18:01.787Z,0
2016-10-17T02:19:01.788Z,0
2016-10-17T02:20:01.761Z,0
2016-10-17T02:21:01.759Z,0
2016-10-17T02:22:01.720Z,0
2016-10-17T02:23:01.915Z,0
2016-10-17T02:24:01.733Z,0
2016-10-17T02:25:01.753Z,0
2016-10-17T02:26:01.737Z,0
2016-10-17T02:27:01.753Z,0
2016-10-17T02:28:01.764Z,0
2016-10-17T02:29:01.759Z,0
2016-10-17T02:30:01.766Z,0
2016-10-17T02:31:01.709Z,0
2016-10-17T02:32:01.709Z,0
2016-10-17T02:33:01.702Z,0
2016-10-17T02:34:01.700Z,0
2016-10-17T02:35:01.710Z,0
2016-10-17T02:36:01.770Z,0
2016-10-17T02:37:01.643Z,0
2016-10-17T02:38:01.650Z,0
2016-10-17T02:39:01.681Z,0
2016-10-17T02:40:01.641Z,0
2016-10-17T02:41:01.667Z,0
2016-10-17T02:42:01.678Z,0
2016-10-17T02:43:01.827Z,0
2016-10-17T02:44:01.694Z,0
2016-10-17T02:45:01.685Z,0
2016-10-17T02:46:01.602Z,0
2016-10-17T02:47:01.611Z,0
2016-10-17T02:48:01.617Z,0
2016-10-17T02:49:01.626Z,0
2016-10-17T02:50:01.634Z,0
2016-10-17T02:51:01.472Z,0
2016-10-17T02:52:01.506Z,0
2016-10-17T02:53:01.461Z,0
2016-10-17T02:54:01.465Z,0
2016-10-17T02:55:01.494Z,0
2016-10-17T02:56:01.470Z,0
2016-10-17T02:57:01.487Z,0
2016-10-17T02:58:01.447Z,0
2016-10-17T02:59:01.459Z,0
2016-10-17T03:00:01.455Z,0
2016-10-17T03:01:01.316Z,0
2016-10-17T03:02:01.308Z,0
2016-10-17T03:03:01.287Z,0
2016-10-17T03:04:01.308Z,0
2016-10-17T03:05:01.311Z,0
2016-10-17T03:06:01.645Z,0
2016-10-17T03:07:01.298Z,0
2016-10-17T03:08:01.150Z,0
2016-10-17T03:09:01.123Z,0
2016-10-17T03:10:01.139Z,0
2016-10-17T03:11:01.137Z,0
2016-10-17T03:12:01.118Z,0
2016-10-17T03:13:01.098Z,0
2016-10-17T03:14:01.089Z,0
2016-10-17T03:15:01.084Z,0
2016-10-17T03:16:01.066Z,0
2016-10-17T03:17:01.062Z,0
2016-10-17T03:18:01.044Z,0
2016-10-17T03:19:01.040Z,0
2016-10-17T03:20:01.029Z,0
2016-10-17T03:21:01.016Z,0
2016-10-17T03:22:01.011Z,0
2016-10-17T03:23:01.001Z,0
2016-10-17T03:24:00.991Z,0
2016-10-17T03:25:00.970Z,0
2016-10-17T03:26:00.971Z,0
2016-10-17T03:27:00.947Z,0
2016-10-17T03:28:00.946Z,0
2016-10-17T03:29:00.943Z,0
2016-10-17T03:30:00.922Z,0
2016-10-17T03:31:00.903Z,0
2016-10-17T03:32:01.101Z,0
2016-10-17T03:33:01.597Z,0
2016-10-17T03:34:00.884Z,0
2016-10-17T03:35:01.267Z,0
2016-10-17T03:36:00.851Z,0
2016-10-17T03:37:00.848Z,0
2016-10-17T03:38:00.834Z,0
2016-10-17T03:39:00.825Z,0
2016-10-17T03:40:00.826Z,0
2016-10-17T03:41:00.809Z,0
2016-10-17T03:42:00.794Z,0
2016-10-17T03:43:00.785Z,0
2016-10-17T03:44:00.786Z,0
2016-10-17T03:45:00.762Z,0
2016-10-17T03:46:00.751Z,0
2016-10-17T03:47:00.758Z,0
2016-10-17T03:48:00.716Z,0
2016-10-17T03:49:01.050Z,0
2016-10-17T03:50:01.028Z,0
2016-10-17T03:51:00.694Z,0
2016-10-17T03:52:01.000Z,0
2016-10-17T03:53:00.685Z,0
2016-10-17T03:54:00.673Z,0
2016-10-17T03:55:00.966Z,0
2016-10-17T03:56:00.654Z,0
2016-10-17T03:57:00.666Z,0
2016-10-17T03:58:00.635Z,0
2016-10-17T03:59:00.653Z,0
2016-10-17T04:00:00.620Z,0
2016-10-17T04:01:00.613Z,0
2016-10-17T04:02:00.592Z,0
2016-10-17T04:03:00.578Z,0
2016-10-17T04:04:00.575Z,0
2016-10-17T04:05:00.889Z,0
2016-10-17T04:06:00.551Z,0
2016-10-17T04:07:00.852Z,0
2016-10-17T04:08:00.528Z,0
2016-10-17T04:09:00.529Z,0
2016-10-17T04:10:00.509Z,0
2016-10-17T04:11:00.485Z,0
2016-10-17T04:12:00.495Z,0
2016-10-17T04:13:00.485Z,0
2016-10-17T04:14:00.454Z,0
2016-10-17T04:15:00.443Z,0
2016-10-17T04:16:00.470Z,0
2016-10-17T04:17:00.444Z,0
2016-10-17T04:18:00.717Z,0
2016-10-17T04:19:00.722Z,0
2016-10-17T04:20:00.401Z,0
2016-10-17T04:21:00.423Z,0
2016-10-17T04:22:00.404Z,0
2016-10-17T04:23:00.675Z,0
2016-10-17T04:24:00.414Z,0
2016-10-17T04:25:00.357Z,0
2016-10-17T04:26:00.359Z,0
2016-10-17T04:27:00.328Z,0
2016-10-17T04:28:00.309Z,0
2016-10-17T04:29:00.302Z,0
2016-10-17T04:30:00.306Z,0
2016-10-17T04:31:00.284Z,0
2016-10-17T04:32:00.591Z,0
2016-10-17T04:33:00.270Z,0
2016-10-17T04:34:00.252Z,0
2016-10-17T04:35:00.231Z,0
2016-10-17T04:36:00.227Z,0
2016-10-17T04:37:00.533Z,0
2016-10-17T04:38:00.208Z,0
2016-10-17T04:39:00.195Z,0
2016-10-17T04:40:00.167Z,0
2016-10-17T04:41:00.173Z,0
2016-10-17T04:42:00.158Z,0
2016-10-17T04:43:00.358Z,0
2016-10-17T04:44:00.135Z,0
2016-10-17T04:45:00.134Z,0
2016-10-17T04:46:00.104Z,0
2016-10-17T04:47:00.168Z,0
2016-10-17T04:48:00.092Z,0
2016-10-17T04:49:00.406Z,0
2016-10-17T04:50:00.080Z,0
2016-10-17T04:51:00.074Z,0
2016-10-17T04:52:00.058Z,0
2016-10-17T04:53:00.027Z,0
2016-10-17T04:54:00.030Z,0
2016-10-17T04:55:00.010Z,0
2016-10-17T04:56:00.008Z,0
2016-10-17T04:57:00.064Z,0
2016-10-17T04:57:59.984Z,0
2016-10-17T04:58:59.984Z,0
2016-10-17T04:59:59.967Z,0
2016-10-17T05:01:00.191Z,0
2016-10-17T05:01:59.949Z,0
2016-10-17T05:02:59.955Z,0
2016-10-17T05:03:59.919Z,0
2016-10-17T05:04:59.925Z,0
2016-10-17T05:05:59.904Z,0
2016-10-17T05:06:59.907Z,0
2016-10-17T05:07:59.885Z,0
2016-10-17T05:08:59.888Z,0
2016-10-17T05:09:59.860Z,0
2016-10-17T05:10:59.860Z,0
2016-10-17T05:11:59.840Z,0
2016-10-17T05:12:59.842Z,0
2016-10-17T05:13:59.824Z,0
2016-10-17T05:14:59.816Z,0
2016-10-17T05:15:59.785Z,0
2016-10-17T05:16:59.787Z,0
2016-10-17T05:17:59.823Z,0
2016-10-17T05:18:59.765Z,0
2016-10-17T05:19:59.744Z,0
2016-10-17T05:20:59.743Z,0
2016-10-17T05:21:59.806Z,0
2016-10-17T05:22:59.725Z,0
2016-10-17T05:23:59.727Z,0
2016-10-17T05:24:59.703Z,0
2016-10-17T05:25:59.712Z,0
2016-10-17T05:26:59.681Z,5
2016-10-17T05:27:59.668Z,5
2016-10-17T05:28:59.658Z,5
2016-10-17T05:29:59.977Z,5
2016-10-17T05:30:59.648Z,5
2016-10-17T05:31:59.611Z,5
2016-10-17T05:32:59.673Z,5
2016-10-17T05:33:59.598Z,5
2016-10-17T05:34:59.586Z,10
2016-10-17T05:35:59.600Z,10
2016-10-17T05:36:59.559Z,10
2016-10-17T05:37:59.578Z,10
2016-10-17T05:38:59.540Z,10
2016-10-17T05:39:59.537Z,10
2016-10-17T05:40:59.527Z,10
2016-10-17T05:41:59.962Z,10
2016-10-17T05:42:59.734Z,10
2016-10-17T05:43:59.517Z,15
2016-10-17T05:44:59.500Z,15
2016-10-17T05:45:59.479Z,15
2016-10-17T05:46:59.461Z,15
2016-10-17T05:47:59.468Z,15
2016-10-17T05:48:59.472Z,20
2016-10-17T05:49:59.479Z,20
2016-10-17T05:50:59.486Z,20
2016-10-17T05:51:59.487Z,20
2016-10-17T05:52:59.492Z,25
2016-10-17T05:53:59.501Z,25
2016-10-17T05:54:59.412Z,25
2016-10-17T05:55:59.407Z,30
2016-10-17T05:56:59.417Z,30
2016-10-17T05:57:59.425Z,35
2016-10-17T05:58:59.443Z,35
2016-10-17T05:59:59.384Z,35
2016-10-17T06:00:59.394Z,40
2016-10-17T06:01:59.390Z,40
2016-10-17T06:02:59.401Z,45
2016-10-17T06:03:59.412Z,45
2016-10-17T06:04:59.421Z,50
2016-10-17T06:05:59.491Z,50
2016-10-17T06:06:59.448Z,55
2016-10-17T06:07:59.335Z,55
2016-10-17T06:08:59.343Z,55
2016-10-17T06:09:59.365Z,55
2016-10-17T06:10:59.358Z,60
2016-10-17T06:11:59.384Z,60
2016-10-17T06:12:59.372Z,60
2016-10-17T06:13:59.385Z,60
2016-10-17T06:14:59.250Z,60
2016-10-17T06:15:59.251Z,65
2016-10-17T06:16:59.399Z,65
2016-10-17T06:17:59.267Z,65
2016-10-17T06:18:59.275Z,65
2016-10-17T06:19:59.283Z,65
2016-10-17T06:20:59.185Z,65
2016-10-17T06:21:59.301Z,70
2016-10-17T06:22:59.202Z,70
2016-10-17T06:23:59.207Z,70
2016-10-17T06:24:59.211Z,70
2016-10-17T06:25:59.219Z,70
2016-10-17T06:26:59.225Z,70
2016-10-17T06:27:59.237Z,70
2016-10-17T06:28:59.247Z,70
2016-10-17T06:29:59.076Z,70
2016-10-17T06:30:59.184Z,75
2016-10-17T06:31:59.209Z,75
2016-10-17T06:32:59.173Z,75
2016-10-17T06:33:59.169Z,80
2016-10-17T06:34:59.171Z,80
2016-10-17T06:35:59.026Z,80
2016-10-17T06:36:59.027Z,80
2016-10-17T06:37:59.015Z,85
2016-10-17T06:38:59.002Z,85
2016-10-17T06:39:59.014Z,85
2016-10-17T06:40:59.009Z,85
2016-10-17T06:41:59.012Z,90
2016-10-17T06:42:58.990Z,90
2016-10-17T06:43:58.989Z,95
2016-10-17T06:44:58.966Z,95
2016-10-17T06:45:59.296Z,95
2016-10-17T06:46:58.846Z,100
2016-10-17T06:47:58.824Z,95
2016-10-17T06:48:58.832Z,95
2016-10-17T06:49:58.811Z,95
2016-10-17T06:50:58.801Z,95
2016-10-17T06:51:58.806Z,95
2016-10-17T06:52:58.839Z,100
2016-10-17T06:53:58.774Z,100
2016-10-17T06:54:58.763Z,105
2016-10-17T06:55:58.748Z,105
2016-10-17T06:56:58.751Z,105
2016-10-17T06:57:58.736Z,110
2016-10-17T06:58:58.733Z,115
2016-10-17T06:59:58.702Z,115
2016-10-17T07:00:58.713Z,120
2016-10-17T07:01:58.686Z,125
2016-10-17T07:02:58.684Z,130
2016-10-17T07:03:58.687Z,135
2016-10-17T07:04:58.670Z,135
2016-10-17T07:05:58.677Z,140
2016-10-17T07:06:58.658Z,145
2016-10-17T07:07:58.642Z,150
2016-10-17T07:08:58.627Z,145
2016-10-17T07:09:58.621Z,150
2016-10-17T07:10:58.631Z,150
2016-10-17T07:11:58.606Z,155
2016-10-17T07:12:58.595Z,155
2016-10-17T07:13:58.593Z,160
2016-10-17T07:14:58.575Z,160
2016-10-17T07:15:58.571Z,165
2016-10-17T07:16:58.563Z,170
2016-10-17T07:17:58.569Z,170
2016-10-17T07:18:58.536Z,175
2016-10-17T07:19:58.527Z,175
2016-10-17T07:20:58.529Z,175
2016-10-17T07:21:58.523Z,180
2016-10-17T07:22:58.520Z,180
2016-10-17T07:23:58.506Z,180
2016-10-17T07:24:58.504Z,185
2016-10-17T07:25:58.518Z,185
2016-10-17T07:26:58.476Z,190
2016-10-17T07:27:58.461Z,190
2016-10-17T07:28:58.664Z,190
2016-10-17T07:29:58.450Z,195
2016-10-17T07:30:58.450Z,190
2016-10-17T07:31:58.439Z,190
2016-10-17T07:32:58.420Z,190
2016-10-17T07:33:58.414Z,185
2016-10-17T07:34:58.408Z,185
2016-10-17T07:35:58.404Z,180
2016-10-17T07:36:58.428Z,180
2016-10-17T07:37:58.392Z,180
2016-10-17T07:38:58.405Z,180
2016-10-17T07:39:58.373Z,175
2016-10-17T07:40:58.413Z,175
2016-10-17T07:41:58.351Z,175
2016-10-17T07:42:58.328Z,175
2016-10-17T07:43:58.341Z,175
2016-10-17T07:44:58.336Z,170
2016-10-17T07:45:58.326Z,170
2016-10-17T07:46:58.317Z,170
2016-10-17T07:47:58.318Z,165
2016-10-17T07:48:58.309Z,170
2016-10-17T07:49:58.299Z,160
2016-10-17T07:50:58.309Z,160
2016-10-17T07:51:58.270Z,160
2016-10-17T07:52:58.277Z,160
2016-10-17T07:53:58.259Z,160
2016-10-17T07:54:58.262Z,160
2016-10-17T07:55:58.259Z,160
2016-10-17T07:56:58.232Z,160
2016-10-17T07:57:58.237Z,160
2016-10-17T07:58:58.238Z,165
2016-10-17T08:00:58.218Z,165
2016-10-17T08:01:58.218Z,165
2016-10-17T08:02:58.209Z,165
2016-10-17T08:03:58.181Z,165
2016-10-17T08:04:58.522Z,165
2016-10-17T08:05:58.187Z,165
2016-10-17T08:06:58.160Z,165
2016-10-17T08:07:58.161Z,165
2016-10-17T08:08:58.159Z,165
2016-10-17T08:09:58.151Z,165
2016-10-17T08:10:58.167Z,165
2016-10-17T08:11:58.119Z,165
2016-10-17T08:12:58.128Z,165
2016-10-17T08:13:58.117Z,160
2016-10-17T08:14:58.102Z,160
2016-10-17T08:15:58.121Z,155
2016-10-17T08:16:58.103Z,155
2016-10-17T08:17:58.119Z,155
2016-10-17T08:18:58.087Z,150
2016-10-17T08:19:58.089Z,150
2016-10-17T08:20:58.057Z,150
2016-10-17T08:21:58.063Z,155
2016-10-17T08:22:58.057Z,155
2016-10-17T08:23:58.051Z,155
2016-10-17T08:24:58.570Z,155
2016-10-17T08:25:58.023Z,155
2016-10-17T08:26:58.031Z,155
2016-10-17T08:27:58.024Z,150
2016-10-17T08:28:58.011Z,150
2016-10-17T08:29:58.041Z,150
2016-10-17T08:30:58.054Z,150
2016-10-17T08:31:57.998Z,150
2016-10-17T08:32:57.983Z,145
2016-10-17T08:33:58.351Z,145
2016-10-17T08:34:57.977Z,150
2016-10-17T08:35:57.962Z,150
2016-10-17T08:36:57.968Z,150
2016-10-17T08:37:57.950Z,150
2016-10-17T08:38:57.939Z,145
2016-10-17T08:39:57.948Z,150
2016-10-17T08:40:57.953Z,150
2016-10-17T08:41:57.956Z,150
2016-10-17T08:42:57.977Z,155
2016-10-17T08:43:57.904Z,155
2016-10-17T08:44:57.913Z,160
2016-10-17T08:45:57.899Z,160
2016-10-17T08:46:57.876Z,165
2016-10-17T08:47:57.906Z,165
2016-10-17T08:48:57.904Z,160
2016-10-17T08:49:57.908Z,170
2016-10-17T08:50:57.939Z,165
2016-10-17T08:51:57.925Z,165
2016-10-17T08:52:57.969Z,170
2016-10-17T08:53:57.943Z,170
2016-10-17T08:54:57.914Z,175
2016-10-17T08:55:57.890Z,175
2016-10-17T08:56:57.860Z,175
2016-10-17T08:57:57.900Z,180
2016-10-17T08:58:57.902Z,180
2016-10-17T08:59:57.880Z,185
2016-10-17T09:00:57.895Z,190
2016-10-17T09:01:57.836Z,190
2016-10-17T09:02:57.838Z,195
2016-10-17T09:03:57.873Z,195
2016-10-17T09:04:57.851Z,200
2016-10-17T09:05:57.852Z,200
2016-10-17T09:06:57.857Z,200
2016-10-17T09:07:57.862Z,200
2016-10-17T09:08:57.888Z,205
2016-10-17T09:09:57.785Z,205
2016-10-17T09:10:57.801Z,210
2016-10-17T09:11:57.809Z,210
2016-10-17T09:12:57.808Z,215
2016-10-17T09:13:57.818Z,215
2016-10-17T09:14:57.816Z,215
2016-10-17T09:15:57.843Z,215
2016-10-17T09:16:58.161Z,210
2016-10-17T09:17:57.841Z,210
2016-10-17T09:18:57.873Z,210
2016-10-17T09:19:57.852Z,210
2016-10-17T09:20:57.865Z,210
2016-10-17T09:21:57.803Z,215
2016-10-17T09:22:57.785Z,215
2016-10-17T09:23:57.778Z,210
2016-10-17T09:24:57.789Z,210
2016-10-17T09:25:57.799Z,210
2016-10-17T09:26:57.804Z,210
2016-10-17T09:27:57.827Z,205
2016-10-17T09:28:57.824Z,205
2016-10-17T09:29:57.752Z,205
2016-10-17T09:30:57.782Z,200
2016-10-17T09:31:57.759Z,200
2016-10-17T09:32:57.780Z,205
2016-10-17T09:33:57.828Z,205
2016-10-17T09:34:57.776Z,210
2016-10-17T09:35:57.753Z,210
2016-10-17T09:36:57.777Z,210
2016-10-17T09:37:57.766Z,215
2016-10-17T09:38:57.717Z,215
2016-10-17T09:39:57.724Z,215
2016-10-17T09:40:57.760Z,220
2016-10-17T09:41:57.761Z,220
2016-10-17T09:42:57.746Z,225
2016-10-17T09:43:57.768Z,225
2016-10-17T09:44:57.758Z,230
2016-10-17T09:45:57.782Z,230
2016-10-17T09:46:57.773Z,235
2016-10-17T09:47:57.674Z,235
2016-10-17T09:48:57.676Z,240
2016-10-17T09:49:58.025Z,245
2016-10-17T09:50:57.693Z,250
2016-10-17T09:51:57.723Z,255
2016-10-17T09:52:57.711Z,255
2016-10-17T09:53:57.732Z,260
2016-10-17T09:54:57.924Z,265
2016-10-17T09:55:57.760Z,265
2016-10-17T09:56:57.722Z,270
2016-10-17T09:57:57.750Z,275
2016-10-17T09:58:57.752Z,280
2016-10-17T09:59:57.755Z,280
2016-10-17T10:00:57.649Z,285
2016-10-17T10:01:57.659Z,295
2016-10-17T10:02:57.715Z,300
2016-10-17T10:03:57.743Z,310
2016-10-17T10:04:57.695Z,305
2016-10-17T10:05:57.714Z,310
2016-10-17T10:06:57.754Z,310
2016-10-17T10:07:57.749Z,310
2016-10-17T10:08:57.577Z,315
2016-10-17T10:09:57.896Z,315
2016-10-17T10:10:57.709Z,320
2016-10-17T10:11:57.567Z,315
2016-10-17T10:12:57.697Z,325
2016-10-17T10:13:57.664Z,320
2016-10-17T10:14:57.680Z,315
2016-10-17T10:15:57.699Z,315
2016-10-17T10:16:57.678Z,315
2016-10-17T10:17:57.564Z,310
2016-10-17T10:18:57.576Z,310
2016-10-17T10:19:57.666Z,305
2016-10-17T10:20:57.661Z,300
2016-10-17T10:21:57.528Z,295
2016-10-17T10:22:57.532Z,295
2016-10-17T10:23:57.535Z,290
2016-10-17T10:24:57.518Z,285
2016-10-17T10:25:57.651Z,280
2016-10-17T10:26:57.504Z,280
2016-10-17T10:27:57.495Z,280
2016-10-17T10:28:57.499Z,275
2016-10-17T10:29:57.509Z,275
2016-10-17T10:30:57.510Z,275
2016-10-17T10:31:57.496Z,275
2016-10-17T10:32:57.542Z,280
2016-10-17T10:33:57.551Z,285
2016-10-17T10:34:57.537Z,285
2016-10-17T10:35:57.546Z,285
2016-10-17T10:36:57.534Z,280
2016-10-17T10:37:57.535Z,280
2016-10-17T10:38:57.486Z,280
2016-10-17T10:39:57.506Z,285
2016-10-17T10:40:57.500Z,285
2016-10-17T10:41:57.491Z,290
2016-10-17T10:42:57.512Z,290
2016-10-17T10:43:57.508Z,290
2016-10-17T10:44:57.502Z,295
2016-10-17T10:45:57.503Z,295
2016-10-17T10:46:57.492Z,300
2016-10-17T10:47:57.495Z,300
2016-10-17T10:48:57.504Z,295
2016-10-17T10:49:57.808Z,295
2016-10-17T10:50:57.479Z,295
2016-10-17T10:51:57.475Z,295
2016-10-17T10:52:57.471Z,295
2016-10-17T10:53:57.478Z,295
2016-10-17T10:54:57.472Z,290
2016-10-17T10:55:57.474Z,290
2016-10-17T10:56:57.472Z,290
2016-10-17T10:57:57.463Z,290
2016-10-17T10:58:57.376Z,290
2016-10-17T10:59:57.498Z,290
2016-10-17T11:00:57.324Z,290
2016-10-17T11:01:57.342Z,285
2016-10-17T11:02:57.327Z,290
2016-10-17T11:03:57.452Z,280
2016-10-17T11:04:57.459Z,275
2016-10-17T11:05:57.493Z,270
2016-10-17T11:06:57.321Z,265
2016-10-17T11:07:57.295Z,265
2016-10-17T11:08:57.302Z,260
2016-10-17T11:09:57.288Z,260
2016-10-17T11:10:57.291Z,260
2016-10-17T11:11:57.289Z,260
2016-10-17T11:12:57.299Z,260
2016-10-17T11:13:57.304Z,260
2016-10-17T11:14:57.281Z,260
2016-10-17T11:15:57.288Z,265
2016-10-17T11:16:57.286Z,265
2016-10-17T11:17:57.293Z,270
2016-10-17T11:18:57.291Z,280
2016-10-17T11:19:57.299Z,280
2016-10-17T11:20:57.304Z,285
2016-10-17T11:21:57.295Z,290
2016-10-17T11:22:57.304Z,290
2016-10-17T11:23:57.287Z,295
2016-10-17T11:24:57.273Z,295
2016-10-17T11:25:57.287Z,300
2016-10-17T11:26:57.287Z,300
2016-10-17T11:27:57.294Z,305
2016-10-17T11:28:57.281Z,305
2016-10-17T11:29:57.273Z,305
2016-10-17T11:30:57.283Z,300
2016-10-17T11:31:57.278Z,300
2016-10-17T11:32:57.273Z,290
2016-10-17T11:33:57.301Z,285
2016-10-17T11:34:57.263Z,280
2016-10-17T11:35:57.269Z,275
2016-10-17T11:36:57.264Z,265
2016-10-17T11:37:57.267Z,255
2016-10-17T11:38:57.573Z,250
2016-10-17T11:39:57.134Z,240
2016-10-17T11:40:57.281Z,230
2016-10-17T11:41:57.236Z,220
2016-10-17T11:42:57.145Z,215
2016-10-17T11:43:57.130Z,210
2016-10-17T11:44:57.118Z,205
2016-10-17T11:45:57.124Z,195
2016-10-17T11:46:57.122Z,185
2016-10-17T11:47:57.476Z,180
2016-10-17T11:48:57.133Z,180
2016-10-17T11:49:57.114Z,175
2016-10-17T11:50:57.118Z,175
2016-10-17T11:51:57.121Z,170
2016-10-17T11:52:57.100Z,170
2016-10-17T11:53:57.135Z,165
2016-10-17T11:54:57.094Z,165
2016-10-17T11:55:57.089Z,165
2016-10-17T11:56:57.105Z,165
2016-10-17T11:57:57.094Z,165
2016-10-17T11:58:57.106Z,165
2016-10-17T11:59:57.085Z,165
2016-10-17T12:00:57.085Z,160
2016-10-17T12:01:57.091Z,160
2016-10-17T12:02:57.093Z,160
2016-10-17T12:03:57.081Z,160
2016-10-17T12:04:57.082Z,160
2016-10-17T12:05:57.058Z,160
2016-10-17T12:06:57.062Z,160
2016-10-17T12:07:57.067Z,160
2016-10-17T12:08:57.061Z,160
2016-10-17T12:09:57.064Z,160
2016-10-17T12:10:57.060Z,160
2016-10-17T12:11:57.040Z,160
2016-10-17T12:12:57.049Z,160
2016-10-17T12:13:57.047Z,160
2016-10-17T12:14:57.031Z,165
2016-10-17T12:15:57.045Z,165
2016-10-17T12:16:57.027Z,170
2016-10-17T12:17:57.032Z,180
2016-10-17T12:18:57.342Z,185
2016-10-17T12:19:57.032Z,185
2016-10-17T12:20:57.028Z,200
2016-10-17T12:21:57.018Z,205
2016-10-17T12:22:57.021Z,215
2016-10-17T12:23:57.000Z,225
2016-10-17T12:24:57.039Z,225
2016-10-17T12:25:57.000Z,225
2016-10-17T12:26:56.988Z,230
2016-10-17T12:27:57.001Z,245
2016-10-17T12:28:57.011Z,250
2016-10-17T12:29:56.998Z,255
2016-10-17T12:30:57.003Z,250
2016-10-17T12:31:56.991Z,255
2016-10-17T12:32:57.002Z,255
2016-10-17T12:33:56.978Z,255
2016-10-17T12:34:57.008Z,255
2016-10-17T12:35:56.975Z,250
2016-10-17T12:36:56.970Z,255
2016-10-17T12:37:56.967Z,245
2016-10-17T12:38:56.961Z,245
2016-10-17T12:39:57.000Z,240
2016-10-17T12:40:56.956Z,235
2016-10-17T12:41:56.958Z,225
2016-10-17T12:42:57.331Z,220
2016-10-17T12:43:56.945Z,215
2016-10-17T12:44:56.947Z,210
2016-10-17T12:45:57.255Z,205
2016-10-17T12:46:56.935Z,205
2016-10-17T12:47:56.948Z,200
2016-10-17T12:48:56.927Z,200
2016-10-17T12:49:56.957Z,195
2016-10-17T12:50:56.932Z,190
2016-10-17T12:51:56.913Z,190
2016-10-17T12:52:56.909Z,185
2016-10-17T12:53:56.958Z,185
2016-10-17T12:54:56.921Z,180
2016-10-17T12:55:56.896Z,180
2016-10-17T12:56:56.916Z,180
2016-10-17T12:57:56.895Z,175
2016-10-17T12:58:56.893Z,180
2016-10-17T12:59:56.905Z,180
2016-10-17T13:00:56.906Z,185
2016-10-17T13:01:56.894Z,190
2016-10-17T13:02:56.906Z,190
2016-10-17T13:03:56.884Z,190
2016-10-17T13:04:56.940Z,190
2016-10-17T13:05:56.926Z,190
2016-10-17T13:06:56.875Z,190
2016-10-17T13:07:56.876Z,190
2016-10-17T13:08:56.910Z,195
2016-10-17T13:09:56.893Z,195
2016-10-17T13:10:56.867Z,195
2016-10-17T13:11:57.180Z,195
2016-10-17T13:12:57.195Z,190
2016-10-17T13:13:56.854Z,190
2016-10-17T13:14:56.857Z,190
2016-10-17T13:15:56.859Z,190
2016-10-17T13:16:56.833Z,195
2016-10-17T13:17:56.826Z,190
2016-10-17T13:18:56.831Z,190
2016-10-17T13:19:56.837Z,185
2016-10-17T13:20:56.845Z,185
2016-10-17T13:21:56.813Z,185
2016-10-17T13:22:56.818Z,185
2016-10-17T13:24:11.763Z,190
2016-10-17T13:24:56.867Z,195
2016-10-17T13:25:56.808Z,195
2016-10-17T13:26:56.803Z,200
2016-10-17T13:27:56.805Z,200
2016-10-17T13:28:56.801Z,200
2016-10-17T13:29:56.801Z,200
2016-10-17T13:30:56.800Z,195
2016-10-17T13:31:56.790Z,195
2016-10-17T13:32:56.799Z,190
2016-10-17T13:33:56.799Z,190
2016-10-17T13:34:56.828Z,185
2016-10-17T13:35:56.788Z,185
2016-10-17T13:36:56.765Z,180
2016-10-17T13:37:56.751Z,180
2016-10-17T13:38:56.775Z,185
2016-10-17T13:39:56.769Z,180
2016-10-17T13:40:57.145Z,180
2016-10-17T13:41:56.756Z,180
2016-10-17T13:42:56.802Z,180
2016-10-17T13:43:56.772Z,180
2016-10-17T13:44:56.863Z,180
2016-10-17T13:45:56.758Z,180
2016-10-17T13:46:56.739Z,185
2016-10-17T13:47:56.742Z,185
2016-10-17T13:48:56.735Z,190
2016-10-17T13:49:56.766Z,195
2016-10-17T13:50:56.734Z,195
2016-10-17T13:51:56.720Z,195
2016-10-17T13:52:56.729Z,195
2016-10-17T13:53:56.713Z,195
2016-10-17T13:54:56.737Z,190
2016-10-17T13:55:56.715Z,195
2016-10-17T13:56:56.713Z,190
2016-10-17T13:57:56.694Z,185
2016-10-17T13:58:56.700Z,180
2016-10-17T13:59:56.691Z,175
2016-10-17T14:00:56.737Z,170
2016-10-17T14:01:56.681Z,170
2016-10-17T14:02:56.677Z,165
2016-10-17T14:03:56.690Z,165
2016-10-17T14:04:56.689Z,160
2016-10-17T14:05:56.677Z,160
2016-10-17T14:06:56.699Z,160
2016-10-17T14:07:56.665Z,155
2016-10-17T14:08:56.656Z,155
2016-10-17T14:09:56.652Z,150
2016-10-17T14:10:56.665Z,150
2016-10-17T14:11:56.642Z,145